sensor_id;sensor_type;location;lat;lon;timestamp;temperature;humidity
46926;DHT22;32667;48.248;-1.700;2022-10-16T00:01:26;16.00;70.80
46926;DHT22;32667;48.248;-1.700;2022-10-16T00:03:52;16.00;70.80
46926;DHT22;32667;48.248;-1.700;2022-10-16T00:06:19;16.00;70.70
46926;DHT22;32667;48.248;-1.700;2022-10-16T00:08:49;16.00;70.70
46926;DHT22;32667;48.248;-1.700;2022-10-16T00:11:20;15.90;70.70
46926;DHT22;32667;48.248;-1.700;2022-10-16T00:13:48;15.90;70.80
46926;DHT22;32667;48.248;-1.700;2022-10-16T00:16:15;15.90;70.80
46926;DHT22;32667;48.248;-1.700;2022-10-16T00:18:42;15.90;70.80
46926;DHT22;32667;48.248;-1.700;2022-10-16T00:21:13;15.90;70.80
46926;DHT22;32667;48.248;-1.700;2022-10-16T00:23:39;15.90;70.90
46926;DHT22;32667;48.248;-1.700;2022-10-16T00:26:08;15.90;70.90
46926;DHT22;32667;48.248;-1.700;2022-10-16T00:28:35;15.90;70.90
46926;DHT22;32667;48.248;-1.700;2022-10-16T00:31:09;15.90;70.90
46926;DHT22;32667;48.248;-1.700;2022-10-16T00:33:36;15.90;70.90
46926;DHT22;32667;48.248;-1.700;2022-10-16T00:36:03;15.90;70.90
46926;DHT22;32667;48.248;-1.700;2022-10-16T00:38:29;15.80;70.80
46926;DHT22;32667;48.248;-1.700;2022-10-16T00:40:55;15.90;70.90
46926;DHT22;32667;48.248;-1.700;2022-10-16T00:46:26;15.90;70.90
46926;DHT22;32667;48.248;-1.700;2022-10-16T00:49:12;15.80;70.90
46926;DHT22;32667;48.248;-1.700;2022-10-16T00:51:41;15.80;70.90
46926;DHT22;32667;48.248;-1.700;2022-10-16T00:54:14;15.70;70.90
46926;DHT22;32667;48.248;-1.700;2022-10-16T00:56:44;15.80;70.90
46926;DHT22;32667;48.248;-1.700;2022-10-16T00:59:32;15.80;70.90
46926;DHT22;32667;48.248;-1.700;2022-10-16T01:01:59;15.80;70.90
46926;DHT22;32667;48.248;-1.700;2022-10-16T01:04:26;15.80;70.90
46926;DHT22;32667;48.248;-1.700;2022-10-16T01:15:03;15.80;70.90
46926;DHT22;32667;48.248;-1.700;2022-10-16T01:17:38;15.70;70.90
46926;DHT22;32667;48.248;-1.700;2022-10-16T01:20:26;15.80;70.90
46926;DHT22;32667;48.248;-1.700;2022-10-16T01:28:16;15.70;71.00
46926;DHT22;32667;48.248;-1.700;2022-10-16T01:30:45;15.70;71.10
46926;DHT22;32667;48.248;-1.700;2022-10-16T01:33:24;15.70;71.00
46926;DHT22;32667;48.248;-1.700;2022-10-16T01:36:00;15.70;71.10
46926;DHT22;32667;48.248;-1.700;2022-10-16T01:38:36;15.70;71.00
46926;DHT22;32667;48.248;-1.700;2022-10-16T01:41:31;15.70;71.00
46926;DHT22;32667;48.248;-1.700;2022-10-16T01:44:03;15.80;71.00
46926;DHT22;32667;48.248;-1.700;2022-10-16T01:46:31;15.80;70.80
46926;DHT22;32667;48.248;-1.700;2022-10-16T01:48:59;15.70;70.80
46926;DHT22;32667;48.248;-1.700;2022-10-16T01:51:26;15.70;71.00
46926;DHT22;32667;48.248;-1.700;2022-10-16T01:53:55;15.70;71.00
46926;DHT22;32667;48.248;-1.700;2022-10-16T01:56:23;15.70;71.00
46926;DHT22;32667;48.248;-1.700;2022-10-16T01:58:54;15.80;71.00
46926;DHT22;32667;48.248;-1.700;2022-10-16T02:01:23;15.80;71.00
46926;DHT22;32667;48.248;-1.700;2022-10-16T02:03:53;15.80;70.90
46926;DHT22;32667;48.248;-1.700;2022-10-16T02:06:19;15.80;70.80
46926;DHT22;32667;48.248;-1.700;2022-10-16T02:08:46;15.90;70.80
46926;DHT22;32667;48.248;-1.700;2022-10-16T02:11:12;15.90;70.70
46926;DHT22;32667;48.248;-1.700;2022-10-16T02:13:55;15.90;70.70
46926;DHT22;32667;48.248;-1.700;2022-10-16T02:16:41;15.90;70.70
46926;DHT22;32667;48.248;-1.700;2022-10-16T02:19:08;15.90;70.70
46926;DHT22;32667;48.248;-1.700;2022-10-16T02:21:51;15.90;70.70
46926;DHT22;32667;48.248;-1.700;2022-10-16T02:27:27;15.90;70.90
46926;DHT22;32667;48.248;-1.700;2022-10-16T02:30:05;15.80;70.90
46926;DHT22;32667;48.248;-1.700;2022-10-16T02:32:34;15.80;70.90
46926;DHT22;32667;48.248;-1.700;2022-10-16T02:35:01;15.80;70.90
46926;DHT22;32667;48.248;-1.700;2022-10-16T02:37:28;15.80;70.90
46926;DHT22;32667;48.248;-1.700;2022-10-16T02:39:55;15.80;71.00
46926;DHT22;32667;48.248;-1.700;2022-10-16T02:42:31;15.80;71.00
46926;DHT22;32667;48.248;-1.700;2022-10-16T02:44:58;15.80;71.00
46926;DHT22;32667;48.248;-1.700;2022-10-16T02:47:23;15.70;71.00
46926;DHT22;32667;48.248;-1.700;2022-10-16T02:49:49;15.70;71.10
46926;DHT22;32667;48.248;-1.700;2022-10-16T02:52:15;15.80;71.20
46926;DHT22;32667;48.248;-1.700;2022-10-16T02:54:46;15.80;71.10
46926;DHT22;32667;48.248;-1.700;2022-10-16T02:57:14;15.80;71.10
46926;DHT22;32667;48.248;-1.700;2022-10-16T02:59:40;15.80;71.00
46926;DHT22;32667;48.248;-1.700;2022-10-16T03:02:06;15.90;71.00
46926;DHT22;32667;48.248;-1.700;2022-10-16T03:04:32;15.90;70.90
46926;DHT22;32667;48.248;-1.700;2022-10-16T03:06:57;16.00;70.80
46926;DHT22;32667;48.248;-1.700;2022-10-16T03:09:23;16.00;70.70
46926;DHT22;32667;48.248;-1.700;2022-10-16T03:11:49;16.00;70.60
46926;DHT22;32667;48.248;-1.700;2022-10-16T03:14:15;16.00;70.60
46926;DHT22;32667;48.248;-1.700;2022-10-16T03:16:40;16.00;70.60
46926;DHT22;32667;48.248;-1.700;2022-10-16T03:19:07;16.00;70.70
46926;DHT22;32667;48.248;-1.700;2022-10-16T03:21:32;16.10;70.70
46926;DHT22;32667;48.248;-1.700;2022-10-16T03:23:58;16.10;70.60
46926;DHT22;32667;48.248;-1.700;2022-10-16T03:26:24;16.10;70.60
46926;DHT22;32667;48.248;-1.700;2022-10-16T03:28:50;16.10;70.60
46926;DHT22;32667;48.248;-1.700;2022-10-16T03:31:15;16.10;70.50
46926;DHT22;32667;48.248;-1.700;2022-10-16T03:33:41;16.10;70.50
46926;DHT22;32667;48.248;-1.700;2022-10-16T03:36:07;16.20;70.50
46926;DHT22;32667;48.248;-1.700;2022-10-16T03:38:33;16.20;70.50
46926;DHT22;32667;48.248;-1.700;2022-10-16T03:40:58;16.10;70.50
46926;DHT22;32667;48.248;-1.700;2022-10-16T03:43:24;16.10;70.60
46926;DHT22;32667;48.248;-1.700;2022-10-16T03:45:51;16.20;70.60
46926;DHT22;32667;48.248;-1.700;2022-10-16T03:48:18;16.20;70.60
46926;DHT22;32667;48.248;-1.700;2022-10-16T03:50:43;16.20;70.50
46926;DHT22;32667;48.248;-1.700;2022-10-16T03:53:12;16.20;70.60
46926;DHT22;32667;48.248;-1.700;2022-10-16T03:55:38;16.10;70.60
46926;DHT22;32667;48.248;-1.700;2022-10-16T03:58:03;16.10;70.70
46926;DHT22;32667;48.248;-1.700;2022-10-16T04:00:29;16.10;70.80
46926;DHT22;32667;48.248;-1.700;2022-10-16T04:02:55;16.10;70.90
46926;DHT22;32667;48.248;-1.700;2022-10-16T04:05:23;16.10;70.80
46926;DHT22;32667;48.248;-1.700;2022-10-16T04:07:48;16.10;70.80
46926;DHT22;32667;48.248;-1.700;2022-10-16T04:10:15;16.10;70.80
46926;DHT22;32667;48.248;-1.700;2022-10-16T04:12:41;16.10;70.80
46926;DHT22;32667;48.248;-1.700;2022-10-16T04:15:07;16.10;70.80
46926;DHT22;32667;48.248;-1.700;2022-10-16T04:17:35;16.10;70.60
46926;DHT22;32667;48.248;-1.700;2022-10-16T04:20:01;16.10;70.60
46926;DHT22;32667;48.248;-1.700;2022-10-16T04:22:27;16.10;70.60
46926;DHT22;32667;48.248;-1.700;2022-10-16T04:24:52;16.10;70.60
46926;DHT22;32667;48.248;-1.700;2022-10-16T04:27:18;16.10;70.60
46926;DHT22;32667;48.248;-1.700;2022-10-16T04:29:44;16.10;70.60
46926;DHT22;32667;48.248;-1.700;2022-10-16T04:32:10;16.10;70.60
46926;DHT22;32667;48.248;-1.700;2022-10-16T04:34:36;16.20;70.60
46926;DHT22;32667;48.248;-1.700;2022-10-16T04:37:03;16.20;70.60
46926;DHT22;32667;48.248;-1.700;2022-10-16T04:39:29;16.20;70.60
46926;DHT22;32667;48.248;-1.700;2022-10-16T04:41:57;16.20;70.60
46926;DHT22;32667;48.248;-1.700;2022-10-16T04:44:23;16.20;70.50
46926;DHT22;32667;48.248;-1.700;2022-10-16T04:46:52;16.20;70.50
46926;DHT22;32667;48.248;-1.700;2022-10-16T04:49:18;16.30;70.50
46926;DHT22;32667;48.248;-1.700;2022-10-16T04:51:44;16.30;70.40
46926;DHT22;32667;48.248;-1.700;2022-10-16T04:54:10;16.30;70.40
46926;DHT22;32667;48.248;-1.700;2022-10-16T04:56:36;16.30;70.40
46926;DHT22;32667;48.248;-1.700;2022-10-16T04:59:09;16.30;70.40
46926;DHT22;32667;48.248;-1.700;2022-10-16T05:01:35;16.30;70.40
46926;DHT22;32667;48.248;-1.700;2022-10-16T05:04:00;16.30;70.50
46926;DHT22;32667;48.248;-1.700;2022-10-16T05:06:26;16.20;70.60
46926;DHT22;32667;48.248;-1.700;2022-10-16T05:08:52;16.20;70.70
46926;DHT22;32667;48.248;-1.700;2022-10-16T05:11:18;16.20;70.70
46926;DHT22;32667;48.248;-1.700;2022-10-16T05:13:44;16.20;70.80
46926;DHT22;32667;48.248;-1.700;2022-10-16T05:16:09;16.20;70.80
46926;DHT22;32667;48.248;-1.700;2022-10-16T05:18:35;16.30;70.80
46926;DHT22;32667;48.248;-1.700;2022-10-16T05:21:01;16.30;70.70
46926;DHT22;32667;48.248;-1.700;2022-10-16T05:23:27;16.30;70.60
46926;DHT22;32667;48.248;-1.700;2022-10-16T05:25:54;16.30;70.60
46926;DHT22;32667;48.248;-1.700;2022-10-16T05:28:20;16.30;70.50
46926;DHT22;32667;48.248;-1.700;2022-10-16T05:30:46;16.30;70.50
46926;DHT22;32667;48.248;-1.700;2022-10-16T05:33:12;16.40;70.50
46926;DHT22;32667;48.248;-1.700;2022-10-16T05:35:38;16.40;70.50
46926;DHT22;32667;48.248;-1.700;2022-10-16T05:38:04;16.40;70.50
46926;DHT22;32667;48.248;-1.700;2022-10-16T05:40:30;16.40;70.40
46926;DHT22;32667;48.248;-1.700;2022-10-16T05:42:56;16.40;70.50
46926;DHT22;32667;48.248;-1.700;2022-10-16T05:45:21;16.40;70.50
46926;DHT22;32667;48.248;-1.700;2022-10-16T05:47:47;16.40;70.50
46926;DHT22;32667;48.248;-1.700;2022-10-16T05:50:13;16.40;70.50
46926;DHT22;32667;48.248;-1.700;2022-10-16T05:52:39;16.40;70.40
46926;DHT22;32667;48.248;-1.700;2022-10-16T05:55:05;16.40;70.30
46926;DHT22;32667;48.248;-1.700;2022-10-16T05:57:30;16.40;70.30
46926;DHT22;32667;48.248;-1.700;2022-10-16T05:59:59;16.40;70.20
46926;DHT22;32667;48.248;-1.700;2022-10-16T06:02:24;16.50;70.40
46926;DHT22;32667;48.248;-1.700;2022-10-16T06:04:53;16.50;70.40
46926;DHT22;32667;48.248;-1.700;2022-10-16T06:07:19;16.40;70.30
46926;DHT22;32667;48.248;-1.700;2022-10-16T06:09:48;16.50;70.30
46926;DHT22;32667;48.248;-1.700;2022-10-16T06:12:15;16.50;70.40
46926;DHT22;32667;48.248;-1.700;2022-10-16T06:14:44;16.50;70.30
46926;DHT22;32667;48.248;-1.700;2022-10-16T06:17:10;16.60;70.30
46926;DHT22;32667;48.248;-1.700;2022-10-16T06:19:38;16.60;70.30
46926;DHT22;32667;48.248;-1.700;2022-10-16T06:22:04;16.60;70.20
46926;DHT22;32667;48.248;-1.700;2022-10-16T06:24:29;16.60;70.20
46926;DHT22;32667;48.248;-1.700;2022-10-16T06:26:55;16.50;70.30
46926;DHT22;32667;48.248;-1.700;2022-10-16T06:29:21;16.50;70.50
46926;DHT22;32667;48.248;-1.700;2022-10-16T06:31:49;16.50;70.50
46926;DHT22;32667;48.248;-1.700;2022-10-16T06:34:15;16.50;70.60
46926;DHT22;32667;48.248;-1.700;2022-10-16T06:36:44;16.50;70.50
46926;DHT22;32667;48.248;-1.700;2022-10-16T06:39:10;16.50;70.40
46926;DHT22;32667;48.248;-1.700;2022-10-16T06:41:36;16.60;70.40
46926;DHT22;32667;48.248;-1.700;2022-10-16T06:44:05;16.60;70.30
46926;DHT22;32667;48.248;-1.700;2022-10-16T06:46:32;16.70;70.30
46926;DHT22;32667;48.248;-1.700;2022-10-16T06:48:57;16.70;70.30
46926;DHT22;32667;48.248;-1.700;2022-10-16T06:51:25;16.70;70.20
46926;DHT22;32667;48.248;-1.700;2022-10-16T06:53:53;16.70;70.20
46926;DHT22;32667;48.248;-1.700;2022-10-16T06:56:25;16.80;70.20
46926;DHT22;32667;48.248;-1.700;2022-10-16T06:58:51;16.80;70.10
46926;DHT22;32667;48.248;-1.700;2022-10-16T07:01:19;16.80;70.00
46926;DHT22;32667;48.248;-1.700;2022-10-16T07:03:46;16.80;70.00
46926;DHT22;32667;48.248;-1.700;2022-10-16T07:06:14;16.80;70.00
46926;DHT22;32667;48.248;-1.700;2022-10-16T07:08:42;16.80;70.10
46926;DHT22;32667;48.248;-1.700;2022-10-16T07:11:17;16.80;70.10
46926;DHT22;32667;48.248;-1.700;2022-10-16T07:13:44;16.80;70.10
46926;DHT22;32667;48.248;-1.700;2022-10-16T07:16:13;16.70;70.10
46926;DHT22;32667;48.248;-1.700;2022-10-16T07:18:40;16.70;70.20
46926;DHT22;32667;48.248;-1.700;2022-10-16T07:21:10;16.70;70.20
46926;DHT22;32667;48.248;-1.700;2022-10-16T07:23:39;16.60;70.30
46926;DHT22;32667;48.248;-1.700;2022-10-16T07:26:06;16.60;70.40
46926;DHT22;32667;48.248;-1.700;2022-10-16T07:28:32;16.60;70.40
46926;DHT22;32667;48.248;-1.700;2022-10-16T07:31:03;16.70;70.40
46926;DHT22;32667;48.248;-1.700;2022-10-16T07:33:30;16.70;70.40
46926;DHT22;32667;48.248;-1.700;2022-10-16T07:35:56;16.70;70.40
46926;DHT22;32667;48.248;-1.700;2022-10-16T07:38:22;16.70;70.40
46926;DHT22;32667;48.248;-1.700;2022-10-16T07:40:48;16.60;70.40
46926;DHT22;32667;48.248;-1.700;2022-10-16T07:43:14;16.70;70.50
46926;DHT22;32667;48.248;-1.700;2022-10-16T07:45:49;16.70;70.40
46926;DHT22;32667;48.248;-1.700;2022-10-16T07:48:16;16.70;70.40
46926;DHT22;32667;48.248;-1.700;2022-10-16T07:50:42;16.70;70.40
46926;DHT22;32667;48.248;-1.700;2022-10-16T07:53:08;16.70;70.40
46926;DHT22;32667;48.248;-1.700;2022-10-16T07:55:34;16.70;70.30
46926;DHT22;32667;48.248;-1.700;2022-10-16T07:58:00;16.70;70.20
46926;DHT22;32667;48.248;-1.700;2022-10-16T08:00:26;16.70;70.20
46926;DHT22;32667;48.248;-1.700;2022-10-16T08:02:51;16.80;70.20
46926;DHT22;32667;48.248;-1.700;2022-10-16T08:05:17;16.80;70.10
46926;DHT22;32667;48.248;-1.700;2022-10-16T08:07:48;16.90;70.70
46926;DHT22;32667;48.248;-1.700;2022-10-16T08:10:18;16.90;70.00
46926;DHT22;32667;48.248;-1.700;2022-10-16T08:12:44;16.90;69.90
46926;DHT22;32667;48.248;-1.700;2022-10-16T08:15:13;16.90;69.80
46926;DHT22;32667;48.248;-1.700;2022-10-16T08:17:39;17.00;69.90
46926;DHT22;32667;48.248;-1.700;2022-10-16T08:20:05;17.00;69.90
46926;DHT22;32667;48.248;-1.700;2022-10-16T08:22:31;17.00;69.90
46926;DHT22;32667;48.248;-1.700;2022-10-16T08:24:56;17.00;70.00
46926;DHT22;32667;48.248;-1.700;2022-10-16T08:27:22;17.00;69.90
46926;DHT22;32667;48.248;-1.700;2022-10-16T08:29:51;17.10;69.90
46926;DHT22;32667;48.248;-1.700;2022-10-16T08:32:20;17.10;69.90
46926;DHT22;32667;48.248;-1.700;2022-10-16T08:34:45;17.10;69.80
46926;DHT22;32667;48.248;-1.700;2022-10-16T08:37:11;17.20;69.80
46926;DHT22;32667;48.248;-1.700;2022-10-16T08:39:39;17.20;69.70
46926;DHT22;32667;48.248;-1.700;2022-10-16T08:45:15;17.30;69.70
46926;DHT22;32667;48.248;-1.700;2022-10-16T08:50:37;17.30;69.70
46926;DHT22;32667;48.248;-1.700;2022-10-16T08:53:04;17.30;69.70
46926;DHT22;32667;48.248;-1.700;2022-10-16T08:55:41;17.30;69.70
46926;DHT22;32667;48.248;-1.700;2022-10-16T08:58:22;17.30;69.80
46926;DHT22;32667;48.248;-1.700;2022-10-16T09:00:56;17.30;69.80
46926;DHT22;32667;48.248;-1.700;2022-10-16T09:03:32;17.30;69.90
46926;DHT22;32667;48.248;-1.700;2022-10-16T09:14:57;17.30;69.90
46926;DHT22;32667;48.248;-1.700;2022-10-16T09:20:18;17.30;70.60
46926;DHT22;32667;48.248;-1.700;2022-10-16T09:22:45;17.30;69.90
46926;DHT22;32667;48.248;-1.700;2022-10-16T09:25:14;17.30;69.90
46926;DHT22;32667;48.248;-1.700;2022-10-16T09:27:41;17.30;70.50
46926;DHT22;32667;48.248;-1.700;2022-10-16T09:30:13;17.40;69.90
46926;DHT22;32667;48.248;-1.700;2022-10-16T09:32:41;17.40;69.90
46926;DHT22;32667;48.248;-1.700;2022-10-16T09:35:15;17.40;69.90
46926;DHT22;32667;48.248;-1.700;2022-10-16T09:37:43;17.40;69.90
46926;DHT22;32667;48.248;-1.700;2022-10-16T09:40:32;17.50;69.90
46926;DHT22;32667;48.248;-1.700;2022-10-16T09:43:30;17.40;69.90
46926;DHT22;32667;48.248;-1.700;2022-10-16T09:46:06;17.40;70.00
46926;DHT22;32667;48.248;-1.700;2022-10-16T09:48:48;17.50;70.00
46926;DHT22;32667;48.248;-1.700;2022-10-16T09:51:34;17.50;69.80
46926;DHT22;32667;48.248;-1.700;2022-10-16T09:54:01;17.60;69.80
46926;DHT22;32667;48.248;-1.700;2022-10-16T09:56:32;17.60;69.80
46926;DHT22;32667;48.248;-1.700;2022-10-16T09:59:02;17.70;69.70
46926;DHT22;32667;48.248;-1.700;2022-10-16T10:01:51;17.70;69.70
46926;DHT22;32667;48.248;-1.700;2022-10-16T10:04:22;17.80;69.70
46926;DHT22;32667;48.248;-1.700;2022-10-16T10:06:49;17.80;69.60
46926;DHT22;32667;48.248;-1.700;2022-10-16T10:14:38;17.90;69.30
46926;DHT22;32667;48.248;-1.700;2022-10-16T10:19:52;18.00;69.30
46926;DHT22;32667;48.248;-1.700;2022-10-16T10:38:27;18.20;69.20
46926;DHT22;32667;48.248;-1.700;2022-10-16T10:46:51;18.10;69.30
46926;DHT22;32667;48.248;-1.700;2022-10-16T10:49:36;18.10;69.40
46926;DHT22;32667;48.248;-1.700;2022-10-16T10:55:19;18.00;69.50
46926;DHT22;32667;48.248;-1.700;2022-10-16T11:00:56;17.90;69.60
46926;DHT22;32667;48.248;-1.700;2022-10-16T11:09:10;17.70;69.80
46926;DHT22;32667;48.248;-1.700;2022-10-16T11:11:59;17.70;70.10
46926;DHT22;32667;48.248;-1.700;2022-10-16T11:14:34;17.60;70.20
46926;DHT22;32667;48.248;-1.700;2022-10-16T11:17:19;17.50;70.30
46926;DHT22;32667;48.248;-1.700;2022-10-16T11:20:12;17.40;70.30
46926;DHT22;32667;48.248;-1.700;2022-10-16T11:23:05;17.30;70.40
46926;DHT22;32667;48.248;-1.700;2022-10-16T11:25:33;17.20;70.70
46926;DHT22;32667;48.248;-1.700;2022-10-16T11:28:15;17.00;70.80
46926;DHT22;32667;48.248;-1.700;2022-10-16T11:30:49;16.90;71.00
46926;DHT22;32667;48.248;-1.700;2022-10-16T11:33:42;16.90;71.20
46926;DHT22;32667;48.248;-1.700;2022-10-16T11:39:20;16.70;71.20
46926;DHT22;32667;48.248;-1.700;2022-10-16T11:42:07;16.60;71.20
46926;DHT22;32667;48.248;-1.700;2022-10-16T11:50:03;16.50;71.30
46926;DHT22;32667;48.248;-1.700;2022-10-16T11:52:40;16.50;71.20
46926;DHT22;32667;48.248;-1.700;2022-10-16T11:57:38;16.50;71.20
46926;DHT22;32667;48.248;-1.700;2022-10-16T12:03:31;16.50;71.20
46926;DHT22;32667;48.248;-1.700;2022-10-16T12:08:33;16.50;71.10
46926;DHT22;32667;48.248;-1.700;2022-10-16T12:11:20;16.50;71.20
46926;DHT22;32667;48.248;-1.700;2022-10-16T12:13:51;16.50;71.30
46926;DHT22;32667;48.248;-1.700;2022-10-16T12:16:19;16.50;71.20
46926;DHT22;32667;48.248;-1.700;2022-10-16T12:18:47;16.40;71.20
46926;DHT22;32667;48.248;-1.700;2022-10-16T12:21:15;16.50;71.30
46926;DHT22;32667;48.248;-1.700;2022-10-16T12:23:51;16.50;71.20
46926;DHT22;32667;48.248;-1.700;2022-10-16T12:26:25;16.50;71.10
46926;DHT22;32667;48.248;-1.700;2022-10-16T12:28:52;16.60;71.10
46926;DHT22;32667;48.248;-1.700;2022-10-16T12:31:18;16.60;70.90
46926;DHT22;32667;48.248;-1.700;2022-10-16T12:33:59;16.60;70.90
46926;DHT22;32667;48.248;-1.700;2022-10-16T12:36:33;16.70;70.90
46926;DHT22;32667;48.248;-1.700;2022-10-16T12:39:01;16.70;70.70
46926;DHT22;32667;48.248;-1.700;2022-10-16T12:41:35;16.80;70.60
46926;DHT22;32667;48.248;-1.700;2022-10-16T12:44:20;16.90;70.50
46926;DHT22;32667;48.248;-1.700;2022-10-16T12:46:49;16.90;70.40
46926;DHT22;32667;48.248;-1.700;2022-10-16T12:49:36;16.90;70.40
46926;DHT22;32667;48.248;-1.700;2022-10-16T12:52:22;17.00;70.40
46926;DHT22;32667;48.248;-1.700;2022-10-16T12:54:49;17.00;70.40
46926;DHT22;32667;48.248;-1.700;2022-10-16T12:59:57;17.10;70.30
46926;DHT22;32667;48.248;-1.700;2022-10-16T13:02:56;17.10;70.20
46926;DHT22;32667;48.248;-1.700;2022-10-16T13:19:28;17.40;69.90
46926;DHT22;32667;48.248;-1.700;2022-10-16T13:24:53;17.50;69.70
46926;DHT22;32667;48.248;-1.700;2022-10-16T13:27:55;17.60;69.70
46926;DHT22;32667;48.248;-1.700;2022-10-16T13:30:26;17.60;69.70
46926;DHT22;32667;48.248;-1.700;2022-10-16T13:33:06;17.60;69.60
46926;DHT22;32667;48.248;-1.700;2022-10-16T13:35:35;17.70;69.70
46926;DHT22;32667;48.248;-1.700;2022-10-16T13:38:19;17.70;69.60
46926;DHT22;32667;48.248;-1.700;2022-10-16T13:41:17;17.80;69.60
46926;DHT22;32667;48.248;-1.700;2022-10-16T13:43:54;17.80;69.50
46926;DHT22;32667;48.248;-1.700;2022-10-16T13:46:25;17.90;69.50
46926;DHT22;32667;48.248;-1.700;2022-10-16T13:49:17;17.90;69.50
46926;DHT22;32667;48.248;-1.700;2022-10-16T13:51:56;17.90;69.50
46926;DHT22;32667;48.248;-1.700;2022-10-16T13:54:25;17.90;69.40
46926;DHT22;32667;48.248;-1.700;2022-10-16T13:56:51;18.00;69.50
46926;DHT22;32667;48.248;-1.700;2022-10-16T13:59:27;18.00;69.50
46926;DHT22;32667;48.248;-1.700;2022-10-16T14:01:58;18.00;69.50
46926;DHT22;32667;48.248;-1.700;2022-10-16T14:04:29;18.00;69.50
46926;DHT22;32667;48.248;-1.700;2022-10-16T14:06:57;18.10;69.50
46926;DHT22;32667;48.248;-1.700;2022-10-16T14:09:26;18.20;69.50
46926;DHT22;32667;48.248;-1.700;2022-10-16T14:11:57;18.30;69.40
46926;DHT22;32667;48.248;-1.700;2022-10-16T14:14:24;18.30;69.30
46926;DHT22;32667;48.248;-1.700;2022-10-16T14:16:56;18.40;69.20
46926;DHT22;32667;48.248;-1.700;2022-10-16T14:19:25;18.50;69.20
46926;DHT22;32667;48.248;-1.700;2022-10-16T14:21:52;18.60;69.10
46926;DHT22;32667;48.248;-1.700;2022-10-16T14:24:32;18.70;69.00
46926;DHT22;32667;48.248;-1.700;2022-10-16T14:26:59;18.80;68.90
46926;DHT22;32667;48.248;-1.700;2022-10-16T14:29:27;18.90;68.80
46926;DHT22;32667;48.248;-1.700;2022-10-16T14:32:04;19.00;68.80
46926;DHT22;32667;48.248;-1.700;2022-10-16T14:34:36;19.00;68.60
46926;DHT22;32667;48.248;-1.700;2022-10-16T14:37:24;19.10;68.60
46926;DHT22;32667;48.248;-1.700;2022-10-16T14:39:53;19.20;68.50
46926;DHT22;32667;48.248;-1.700;2022-10-16T14:42:21;19.20;68.50
46926;DHT22;32667;48.248;-1.700;2022-10-16T14:44:50;19.20;68.60
46926;DHT22;32667;48.248;-1.700;2022-10-16T14:47:22;19.30;68.60
46926;DHT22;32667;48.248;-1.700;2022-10-16T14:49:54;19.30;68.60
46926;DHT22;32667;48.248;-1.700;2022-10-16T14:52:21;19.40;68.60
46926;DHT22;32667;48.248;-1.700;2022-10-16T14:54:50;19.40;68.60
46926;DHT22;32667;48.248;-1.700;2022-10-16T14:57:22;19.50;68.60
46926;DHT22;32667;48.248;-1.700;2022-10-16T14:59:49;19.50;68.50
46926;DHT22;32667;48.248;-1.700;2022-10-16T15:02:31;19.50;68.50
46926;DHT22;32667;48.248;-1.700;2022-10-16T15:04:59;19.60;69.20
46926;DHT22;32667;48.248;-1.700;2022-10-16T15:07:27;19.60;68.60
46926;DHT22;32667;48.248;-1.700;2022-10-16T15:09:53;19.70;68.60
46926;DHT22;32667;48.248;-1.700;2022-10-16T15:12:26;19.70;68.50
46926;DHT22;32667;48.248;-1.700;2022-10-16T15:14:52;19.80;68.50
46926;DHT22;32667;48.248;-1.700;2022-10-16T15:17:21;19.80;68.60
46926;DHT22;32667;48.248;-1.700;2022-10-16T15:19:52;19.80;68.60
46926;DHT22;32667;48.248;-1.700;2022-10-16T15:22:18;19.80;68.60
46926;DHT22;32667;48.248;-1.700;2022-10-16T15:24:46;19.80;68.50
46926;DHT22;32667;48.248;-1.700;2022-10-16T15:27:12;19.90;68.50
46926;DHT22;32667;48.248;-1.700;2022-10-16T15:29:49;19.90;68.50
46926;DHT22;32667;48.248;-1.700;2022-10-16T15:32:15;19.90;68.50
46926;DHT22;32667;48.248;-1.700;2022-10-16T15:34:40;19.90;68.60
46926;DHT22;32667;48.248;-1.700;2022-10-16T15:37:06;20.00;68.60
46926;DHT22;32667;48.248;-1.700;2022-10-16T15:39:32;20.10;68.40
46926;DHT22;32667;48.248;-1.700;2022-10-16T15:41:58;20.30;68.30
46926;DHT22;32667;48.248;-1.700;2022-10-16T15:44:23;20.40;68.00
46926;DHT22;32667;48.248;-1.700;2022-10-16T15:46:54;20.50;67.90
46926;DHT22;32667;48.248;-1.700;2022-10-16T15:49:20;20.50;67.90
46926;DHT22;32667;48.248;-1.700;2022-10-16T15:51:46;20.50;68.00
46926;DHT22;32667;48.248;-1.700;2022-10-16T15:54:14;20.50;68.00
46926;DHT22;32667;48.248;-1.700;2022-10-16T15:56:40;20.50;68.00
46926;DHT22;32667;48.248;-1.700;2022-10-16T15:59:06;20.60;68.10
46926;DHT22;32667;48.248;-1.700;2022-10-16T16:01:35;20.60;68.00
46926;DHT22;32667;48.248;-1.700;2022-10-16T16:04:01;20.60;67.90
46926;DHT22;32667;48.248;-1.700;2022-10-16T16:06:27;20.70;68.00
46926;DHT22;32667;48.248;-1.700;2022-10-16T16:08:54;20.70;68.00
46926;DHT22;32667;48.248;-1.700;2022-10-16T16:11:22;20.70;68.00
46926;DHT22;32667;48.248;-1.700;2022-10-16T16:13:49;20.70;68.00
46926;DHT22;32667;48.248;-1.700;2022-10-16T16:16:16;20.60;68.10
46926;DHT22;32667;48.248;-1.700;2022-10-16T16:18:42;20.60;68.20
46926;DHT22;32667;48.248;-1.700;2022-10-16T16:21:10;20.60;68.40
46926;DHT22;32667;48.248;-1.700;2022-10-16T16:23:36;20.50;68.40
46926;DHT22;32667;48.248;-1.700;2022-10-16T16:28:30;20.50;68.60
46926;DHT22;32667;48.248;-1.700;2022-10-16T16:30:56;20.40;68.60
46926;DHT22;32667;48.248;-1.700;2022-10-16T16:33:21;20.40;68.70
46926;DHT22;32667;48.248;-1.700;2022-10-16T16:35:47;20.40;68.80
46926;DHT22;32667;48.248;-1.700;2022-10-16T16:38:13;20.30;68.80
46926;DHT22;32667;48.248;-1.700;2022-10-16T16:40:39;20.30;69.00
46926;DHT22;32667;48.248;-1.700;2022-10-16T16:43:06;20.30;69.00
46926;DHT22;32667;48.248;-1.700;2022-10-16T16:45:35;20.30;69.00
46926;DHT22;32667;48.248;-1.700;2022-10-16T16:48:01;20.20;68.90
46926;DHT22;32667;48.248;-1.700;2022-10-16T16:50:27;20.20;68.90
46926;DHT22;32667;48.248;-1.700;2022-10-16T16:52:55;20.20;69.00
46926;DHT22;32667;48.248;-1.700;2022-10-16T16:55:21;20.20;69.00
46926;DHT22;32667;48.248;-1.700;2022-10-16T16:57:48;20.20;69.00
46926;DHT22;32667;48.248;-1.700;2022-10-16T17:00:17;20.20;69.10
46926;DHT22;32667;48.248;-1.700;2022-10-16T17:02:43;20.20;69.10
46926;DHT22;32667;48.248;-1.700;2022-10-16T17:05:10;20.20;69.10
46926;DHT22;32667;48.248;-1.700;2022-10-16T17:07:35;20.20;69.10
46926;DHT22;32667;48.248;-1.700;2022-10-16T17:10:02;20.20;69.10
46926;DHT22;32667;48.248;-1.700;2022-10-16T17:12:29;20.20;69.10
46926;DHT22;32667;48.248;-1.700;2022-10-16T17:14:55;20.20;69.10
46926;DHT22;32667;48.248;-1.700;2022-10-16T17:17:21;20.20;69.10
46926;DHT22;32667;48.248;-1.700;2022-10-16T17:19:49;20.10;69.00
46926;DHT22;32667;48.248;-1.700;2022-10-16T17:22:18;20.10;69.10
46926;DHT22;32667;48.248;-1.700;2022-10-16T17:24:47;20.10;69.10
46926;DHT22;32667;48.248;-1.700;2022-10-16T17:27:15;20.10;69.10
46926;DHT22;32667;48.248;-1.700;2022-10-16T17:29:41;20.10;69.10